createdAt,value
2018-02-13T00:01:56.898Z,25.53
2018-02-13T00:04:27.132Z,25.47
2018-02-13T00:06:57.478Z,27.20
2018-02-13T00:09:29.911Z,27.67
2018-02-13T00:12:00.195Z,20.37
2018-02-13T00:14:30.546Z,27.10
2018-02-13T00:17:01.043Z,34.65
2018-02-13T00:19:31.375Z,28.87
2018-02-13T00:22:01.893Z,31.20
2018-02-13T00:24:32.251Z,27.20
2018-02-13T00:27:02.836Z,29.35
2018-02-13T00:29:33.111Z,29.80
2018-02-13T00:32:03.352Z,27.90
2018-02-13T00:34:33.691Z,27.30
2018-02-13T00:37:04.282Z,30.17
2018-02-13T00:39:34.875Z,28.05
2018-02-13T00:42:06.226Z,29.03
2018-02-13T00:44:36.479Z,31.13
2018-02-13T00:50:19.153Z,33.63
2018-02-13T00:52:50.341Z,33.43
2018-02-13T00:55:20.830Z,34.00
2018-02-13T00:57:51.302Z,33.47
2018-02-13T01:00:21.633Z,34.03
2018-02-13T01:02:52.878Z,28.67
2018-02-13T01:05:24.222Z,41.13
2018-02-13T01:07:54.459Z,37.93
2018-02-13T01:10:24.708Z,28.45
2018-02-13T01:12:55.434Z,29.25
2018-02-13T01:15:26.594Z,29.80
2018-02-13T01:17:58.307Z,36.05
2018-02-13T01:20:28.786Z,37.40
2018-02-13T01:22:59.869Z,32.93
2018-02-13T01:25:30.091Z,34.92
2018-02-13T01:28:01.119Z,29.85
2018-02-13T01:30:31.639Z,34.53
2018-02-13T01:33:01.891Z,36.42
2018-02-13T01:35:32.180Z,35.23
2018-02-13T01:38:02.530Z,34.53
2018-02-13T01:40:34.607Z,36.65
2018-02-13T01:43:05.814Z,37.70
2018-02-13T01:45:36.127Z,37.50
2018-02-13T01:48:06.878Z,43.67
2018-02-13T01:50:37.803Z,34.72
2018-02-13T01:53:08.010Z,48.40
2018-02-13T01:55:39.286Z,35.25
2018-02-13T01:58:16.689Z,37.10
2018-02-13T02:00:55.239Z,38.92
2018-02-13T02:03:25.607Z,34.00
2018-02-13T02:05:55.891Z,42.25
2018-02-13T02:08:26.395Z,47.03
2018-02-13T02:10:57.108Z,43.35
2018-02-13T02:13:28.411Z,45.67
2018-02-13T02:15:58.770Z,42.60
2018-02-13T02:18:29.247Z,44.97
2018-02-13T02:21:00.419Z,44.50
2018-02-13T02:23:30.879Z,47.40
2018-02-13T02:26:02.056Z,37.80
2018-02-13T02:28:33.295Z,44.55
2018-02-13T02:31:04.293Z,44.70
2018-02-13T02:33:34.911Z,39.55
2018-02-13T02:36:05.516Z,42.78
2018-02-13T02:38:35.771Z,37.83
2018-02-13T02:41:06.372Z,43.87
2018-02-13T02:43:39.128Z,43.77
2018-02-13T02:46:09.844Z,44.13
2018-02-13T02:48:40.579Z,39.97
2018-02-13T02:51:11.123Z,44.92
2018-02-13T02:53:42.089Z,51.35
2018-02-13T02:56:12.327Z,38.77
2018-02-13T02:58:42.883Z,47.85
2018-02-13T03:01:14.519Z,50.08
2018-02-13T03:03:46.087Z,44.25
2018-02-13T03:06:17.578Z,50.42
2018-02-13T03:08:48.471Z,45.40
2018-02-13T03:11:18.898Z,47.15
2018-02-13T03:13:50.370Z,50.75
2018-02-13T03:16:20.711Z,43.80
2018-02-13T03:18:51.606Z,49.88
2018-02-13T03:21:22.755Z,43.97
2018-02-13T03:23:53.789Z,45.80
2018-02-13T03:26:24.659Z,40.50
2018-02-13T03:28:55.987Z,43.15
2018-02-13T03:31:26.692Z,56.22
2018-02-13T03:33:57.630Z,51.92
2018-02-13T03:36:28.975Z,42.25
2018-02-13T03:39:01.099Z,47.75
2018-02-13T03:41:32.860Z,44.08
2018-02-13T03:44:03.400Z,47.40
2018-02-13T03:46:33.879Z,45.70
2018-02-13T03:49:04.351Z,52.97
2018-02-13T03:51:35.207Z,45.30
2018-02-13T03:54:05.772Z,52.80
2018-02-13T03:56:36.031Z,46.67
2018-02-13T03:59:06.327Z,48.78
2018-02-13T04:01:37.059Z,48.38
2018-02-13T04:04:07.291Z,48.47
2018-02-13T04:06:38.119Z,44.33
2018-02-13T04:09:08.583Z,48.65
2018-02-13T04:11:39.558Z,48.15
2018-02-13T04:14:10.911Z,52.53
2018-02-13T04:16:41.123Z,45.72
2018-02-13T04:19:12.416Z,42.85
2018-02-13T04:21:42.614Z,49.45
2018-02-13T04:24:13.135Z,53.55
2018-02-13T04:26:43.939Z,48.17
2018-02-13T04:29:14.582Z,40.67
2018-02-13T04:31:46.011Z,50.35
2018-02-13T04:34:17.558Z,52.17
2018-02-13T04:36:47.809Z,51.63
2018-02-13T04:39:18.969Z,50.22
2018-02-13T04:41:49.838Z,56.25
2018-02-13T04:44:20.566Z,47.83
2018-02-13T04:46:50.911Z,48.87
2018-02-13T04:49:21.967Z,50.12
2018-02-13T04:51:53.299Z,44.80
2018-02-13T04:54:23.543Z,45.65
2018-02-13T04:56:54.587Z,46.53
2018-02-13T04:59:25.838Z,43.97
2018-02-13T05:01:57.770Z,48.60
2018-02-13T05:04:29.207Z,52.00
2018-02-13T05:06:59.719Z,46.90
2018-02-13T05:09:29.936Z,48.55
2018-02-13T05:12:00.159Z,46.08
2018-02-13T05:14:31.615Z,42.70
2018-02-13T05:17:02.167Z,43.45
2018-02-13T05:19:33.300Z,48.90
2018-02-13T05:22:03.556Z,51.90
2018-02-13T05:24:33.764Z,47.95
2018-02-13T05:27:05.063Z,41.78
2018-02-13T05:29:35.323Z,41.42
2018-02-13T05:32:06.768Z,44.28
2018-02-13T05:34:37.758Z,47.38
2018-02-13T05:37:08.962Z,46.55
2018-02-13T05:39:40.181Z,47.50
2018-02-13T05:42:11.680Z,47.53
2018-02-13T05:44:42.558Z,48.55
2018-02-13T05:47:13.086Z,51.50
2018-02-13T05:49:44.203Z,46.63
2018-02-13T05:52:14.830Z,50.03
2018-02-13T05:54:45.088Z,49.42
2018-02-13T05:57:15.339Z,50.88
2018-02-13T05:59:55.511Z,45.38
2018-02-13T06:02:26.235Z,53.30
2018-02-13T06:04:56.499Z,49.80
2018-02-13T06:07:26.987Z,48.42
2018-02-13T06:09:57.483Z,55.40
2018-02-13T06:12:28.597Z,52.25
2018-02-13T06:15:00.755Z,51.47
2018-02-13T06:17:31.319Z,51.90
2018-02-13T06:20:02.328Z,53.53
2018-02-13T06:22:32.819Z,56.92
2018-02-13T06:25:03.375Z,54.85
2018-02-13T06:27:33.606Z,66.60
2018-02-13T06:30:04.167Z,51.35
2018-02-13T06:32:35.172Z,54.97
2018-02-13T06:35:05.418Z,58.80
2018-02-13T06:37:36.060Z,60.93
2018-02-13T06:40:07.368Z,51.13
2018-02-13T06:42:37.599Z,58.45
2018-02-13T06:45:08.248Z,53.28
2018-02-13T06:47:38.471Z,62.78
2018-02-13T06:50:09.415Z,56.80
2018-02-13T06:52:40.715Z,58.03
2018-02-13T06:55:11.174Z,56.33
2018-02-13T06:57:41.398Z,64.40
2018-02-13T07:00:13.194Z,60.33
2018-02-13T07:02:43.890Z,63.33
2018-02-13T07:05:14.798Z,57.22
2018-02-13T07:07:45.943Z,59.15
2018-02-13T07:10:16.439Z,57.45
2018-02-13T07:12:48.610Z,56.80
2018-02-13T07:15:20.414Z,53.65
2018-02-13T07:17:54.267Z,56.47
2018-02-13T07:20:24.839Z,59.42
2018-02-13T07:22:58.201Z,52.40
2018-02-13T07:25:30.963Z,53.70
2018-02-13T07:28:01.654Z,51.30
2018-02-13T07:30:33.311Z,48.00
2018-02-13T07:33:04.406Z,51.35
2018-02-13T07:35:35.378Z,45.23
2018-02-13T07:38:06.466Z,48.60
2018-02-13T07:40:36.739Z,46.30
2018-02-13T07:43:07.507Z,49.00
2018-02-13T07:45:37.782Z,47.10
2018-02-13T07:48:09.514Z,40.72
2018-02-13T07:50:41.348Z,43.80
2018-02-13T07:53:12.009Z,49.53
2018-02-13T07:55:43.394Z,45.60
2018-02-13T07:58:15.047Z,41.90
2018-02-13T08:00:50.728Z,41.60
2018-02-13T08:03:23.734Z,37.13
2018-02-13T08:05:54.546Z,43.60
2018-02-13T08:08:25.088Z,37.58
2018-02-13T08:10:55.328Z,40.30
2018-02-13T08:13:28.389Z,43.73
2018-02-13T08:16:01.511Z,41.93
2018-02-13T08:18:31.981Z,43.30
2018-02-13T08:21:03.523Z,39.43
2018-02-13T08:23:33.999Z,46.33
2018-02-13T08:26:05.134Z,46.80
2018-02-13T08:28:36.501Z,41.63
2018-02-13T08:31:07.748Z,42.40
2018-02-13T08:33:40.843Z,40.97
2018-02-13T08:36:11.836Z,39.87
2018-02-13T08:38:43.654Z,46.43
2018-02-13T08:41:16.140Z,42.83
2018-02-13T08:43:49.110Z,46.00
2018-02-13T08:46:20.274Z,38.07
2018-02-13T08:48:50.526Z,41.43
2018-02-13T08:51:21.108Z,41.53
2018-02-13T08:53:52.000Z,41.07
2018-02-13T08:59:02.718Z,43.10
2018-02-13T09:01:33.472Z,36.93
2018-02-13T09:04:04.540Z,39.00
2018-02-13T09:06:34.797Z,41.00
2018-02-13T09:09:06.124Z,41.17
2018-02-13T09:11:36.379Z,44.17
2018-02-13T09:14:06.675Z,40.60
2018-02-13T09:16:36.946Z,38.93
2018-02-13T09:19:07.456Z,41.47
2018-02-13T09:21:38.960Z,39.77
2018-02-13T09:24:09.262Z,33.60
2018-02-13T09:26:39.767Z,35.87
2018-02-13T09:29:10.166Z,35.27
2018-02-13T09:31:41.212Z,38.57
2018-02-13T09:34:11.933Z,35.50
2018-02-13T09:36:42.158Z,34.10
2018-02-13T09:39:12.470Z,39.30
2018-02-13T09:41:42.974Z,36.80
2018-02-13T09:44:13.213Z,34.10
2018-02-13T09:46:43.448Z,37.23
2018-02-13T09:49:13.934Z,36.00
2018-02-13T09:51:45.416Z,33.53
2018-02-13T09:54:15.650Z,32.00
2018-02-13T09:56:46.284Z,36.33
2018-02-13T09:59:17.478Z,31.63
2018-02-13T10:01:48.470Z,32.73
2018-02-13T10:04:19.080Z,34.40
2018-02-13T10:06:49.319Z,33.50
2018-02-13T10:09:20.555Z,33.03
2018-02-13T10:11:51.831Z,33.53
2018-02-13T10:14:22.598Z,34.23
2018-02-13T10:16:53.879Z,33.90
2018-02-13T10:19:24.483Z,34.47
2018-02-13T10:21:55.586Z,34.97
2018-02-13T10:24:25.831Z,36.37
2018-02-13T10:26:57.063Z,34.60
2018-02-13T10:29:31.271Z,40.87
2018-02-13T10:32:01.692Z,31.03
2018-02-13T10:34:32.390Z,33.00
2018-02-13T10:37:02.610Z,35.33
2018-02-13T10:39:32.816Z,33.13
2018-02-13T10:42:03.330Z,35.10
2018-02-13T10:44:33.716Z,31.10
2018-02-13T10:47:04.012Z,31.20
2018-02-13T10:49:34.536Z,31.17
2018-02-13T10:52:05.095Z,35.80
2018-02-13T10:54:36.115Z,32.67
2018-02-13T10:57:06.722Z,36.03
2018-02-13T10:59:37.554Z,32.47
2018-02-13T11:02:11.907Z,31.83
2018-02-13T11:04:43.423Z,27.47
2018-02-13T11:07:13.657Z,26.43
2018-02-13T11:09:44.343Z,25.23
2018-02-13T11:12:14.646Z,27.30
2018-02-13T11:14:46.074Z,26.30
2018-02-13T11:17:16.708Z,23.40
2018-02-13T11:19:46.986Z,28.77
2018-02-13T11:22:17.967Z,28.43
2018-02-13T11:24:48.432Z,29.73
2018-02-13T11:27:19.409Z,22.40
2018-02-13T11:29:49.637Z,25.80
2018-02-13T11:32:20.242Z,24.10
2018-02-13T11:34:50.680Z,25.07
2018-02-13T11:37:21.470Z,25.23
2018-02-13T11:39:52.775Z,25.90
2018-02-13T11:42:23.143Z,24.50
2018-02-13T11:44:53.451Z,19.77
2018-02-13T11:47:24.028Z,26.57
2018-02-13T11:49:54.631Z,19.70
2018-02-13T11:52:25.943Z,21.27
2018-02-13T11:54:56.499Z,22.83
2018-02-13T11:57:27.630Z,21.87
2018-02-13T11:59:57.901Z,22.47
2018-02-13T12:02:28.141Z,22.87
2018-02-13T12:04:58.678Z,30.77
2018-02-13T12:07:30.597Z,21.80
2018-02-13T12:10:01.040Z,19.00
2018-02-13T12:12:31.542Z,22.30
2018-02-13T12:15:01.759Z,17.43
2018-02-13T12:17:31.977Z,21.53
2018-02-13T12:20:02.238Z,20.47
2018-02-13T12:22:32.996Z,18.10
2018-02-13T12:25:03.522Z,23.30
2018-02-13T12:27:33.771Z,18.43
2018-02-13T12:30:04.479Z,19.97
2018-02-13T12:32:34.738Z,18.83
2018-02-13T12:35:05.952Z,16.20
2018-02-13T12:37:36.977Z,16.97
2018-02-13T12:40:08.557Z,15.63
2018-02-13T12:42:39.716Z,16.17
2018-02-13T12:45:10.128Z,20.30
2018-02-13T12:47:40.774Z,19.03
2018-02-13T12:50:11.211Z,16.73
2018-02-13T12:52:41.763Z,18.57
2018-02-13T12:55:13.531Z,17.93
2018-02-13T12:57:44.279Z,14.90
2018-02-13T13:00:14.819Z,14.23
2018-02-13T13:02:46.074Z,15.80
2018-02-13T13:05:17.375Z,14.60
2018-02-13T13:07:47.971Z,12.93
2018-02-13T13:10:19.021Z,13.00
2018-02-13T13:12:49.353Z,14.53
2018-02-13T13:15:19.984Z,12.70
2018-02-13T13:17:50.894Z,15.37
2018-02-13T13:20:40.943Z,14.07
2018-02-13T13:24:24.399Z,14.23
2018-02-13T13:26:55.442Z,12.90
2018-02-13T13:29:27.002Z,14.67
2018-02-13T13:31:58.059Z,16.37
2018-02-13T13:34:28.412Z,11.97
2018-02-13T13:36:59.715Z,10.90
2018-02-13T13:39:31.755Z,10.77
2018-02-13T13:42:05.199Z,9.60
2018-02-13T13:44:35.462Z,14.43
2018-02-13T13:47:06.195Z,13.20
2018-02-13T13:49:36.519Z,13.37
2018-02-13T13:52:07.604Z,15.60
2018-02-13T13:54:38.944Z,13.17
2018-02-13T13:57:09.326Z,11.00
2018-02-13T13:59:40.854Z,14.03
2018-02-13T14:02:11.487Z,11.03
2018-02-13T14:04:41.789Z,10.13
2018-02-13T14:07:12.373Z,9.97
2018-02-13T14:09:42.587Z,11.20
2018-02-13T14:12:13.347Z,11.23
2018-02-13T14:14:43.615Z,9.53
2018-02-13T14:17:14.503Z,11.93
2018-02-13T14:19:45.048Z,9.83
2018-02-13T14:22:16.783Z,7.57
2018-02-13T14:24:47.020Z,15.00
2018-02-13T14:27:17.317Z,7.47
2018-02-13T14:29:48.867Z,11.47
2018-02-13T14:32:19.148Z,9.50
2018-02-13T14:34:49.445Z,10.20
2018-02-13T14:37:20.679Z,10.90
2018-02-13T14:39:51.976Z,8.03
2018-02-13T14:42:22.446Z,7.80
2018-02-13T14:44:53.652Z,8.10
2018-02-13T14:47:25.425Z,7.60
2018-02-13T14:49:55.636Z,8.73
2018-02-13T14:52:26.511Z,10.20
2018-02-13T14:54:58.055Z,14.50
2018-02-13T14:57:28.291Z,14.83
2018-02-13T14:59:59.339Z,9.53
2018-02-13T15:02:30.618Z,10.23
2018-02-13T15:05:00.899Z,11.00
2018-02-13T15:07:31.895Z,10.07
2018-02-13T15:10:02.394Z,12.33
2018-02-13T15:12:33.031Z,13.57
2018-02-13T15:15:04.103Z,9.73
2018-02-13T15:17:34.874Z,10.00
2018-02-13T15:20:05.332Z,9.23
2018-02-13T15:22:35.635Z,9.77
2018-02-13T15:25:07.848Z,22.77
2018-02-13T15:27:39.423Z,8.67
2018-02-13T15:30:10.302Z,8.63
2018-02-13T15:32:47.031Z,12.73
2018-02-13T15:35:24.355Z,12.00
2018-02-13T15:37:57.947Z,7.73
2018-02-13T15:40:36.062Z,9.17
2018-02-13T15:43:06.876Z,11.67
2018-02-13T15:45:40.018Z,7.77
2018-02-13T15:48:16.449Z,11.53
2018-02-13T15:50:47.743Z,9.17
2018-02-13T15:53:20.875Z,12.50
2018-02-13T15:55:52.561Z,23.97
2018-02-13T15:58:25.715Z,11.40
2018-02-13T16:00:56.229Z,9.60
2018-02-13T16:03:27.241Z,10.33
2018-02-13T16:05:58.147Z,10.73
2018-02-13T16:08:28.657Z,10.03
2018-02-13T16:10:59.272Z,8.20
2018-02-13T16:13:30.560Z,6.90
2018-02-13T16:16:00.815Z,12.67
2018-02-13T16:18:31.349Z,10.57
2018-02-13T16:21:01.842Z,10.20
2018-02-13T16:23:32.824Z,10.57
2018-02-13T16:26:03.271Z,13.13
2018-02-13T16:28:33.764Z,12.90
2018-02-13T16:31:04.948Z,9.60
2018-02-13T16:33:36.688Z,10.83
2018-02-13T16:36:07.507Z,11.40
2018-02-13T16:38:38.567Z,10.10
2018-02-13T16:41:09.936Z,9.10
2018-02-13T16:43:40.371Z,95.37
2018-02-13T16:46:11.639Z,48.10
2018-02-13T16:48:47.790Z,14.33
2018-02-13T16:51:18.802Z,11.40
2018-02-13T16:53:49.064Z,11.43
2018-02-13T16:56:19.588Z,15.23
2018-02-13T16:58:50.760Z,13.70
2018-02-13T17:01:23.772Z,15.73
2018-02-13T17:03:54.297Z,14.37
2018-02-13T17:06:26.283Z,13.90
2018-02-13T17:08:56.593Z,15.83
2018-02-13T17:11:28.460Z,15.37
2018-02-13T17:13:58.745Z,13.57
2018-02-13T17:16:30.902Z,11.70
2018-02-13T17:19:01.507Z,14.07
2018-02-13T17:21:31.783Z,20.30
2018-02-13T17:24:02.149Z,11.90
2018-02-13T17:26:32.429Z,18.03
2018-02-13T17:29:02.983Z,11.87
2018-02-13T17:31:33.398Z,8.30
2018-02-13T17:34:03.841Z,9.93
2018-02-13T17:36:35.206Z,11.57
2018-02-13T17:39:05.770Z,12.13
2018-02-13T17:41:36.079Z,11.90
2018-02-13T17:44:07.119Z,11.10
2018-02-13T17:46:38.606Z,9.63
2018-02-13T17:49:10.340Z,17.07
2018-02-13T17:51:42.425Z,12.60
2018-02-13T17:54:14.371Z,15.53
2018-02-13T17:56:45.213Z,14.40
2018-02-13T17:59:16.115Z,13.03
2018-02-13T18:01:47.386Z,9.80
2018-02-13T18:04:18.075Z,15.07
2018-02-13T18:06:48.796Z,10.70
2018-02-13T18:09:20.553Z,19.00
2018-02-13T18:11:52.061Z,12.53
2018-02-13T18:14:24.451Z,11.80
2018-02-13T18:16:56.546Z,12.20
2018-02-13T18:19:29.935Z,31.50
2018-02-13T18:22:02.142Z,45.07
2018-02-13T18:24:34.221Z,13.83
2018-02-13T18:27:06.840Z,17.03
2018-02-13T18:29:39.221Z,18.30
2018-02-13T18:32:10.332Z,19.70
2018-02-13T18:34:41.624Z,17.17
2018-02-13T18:37:13.495Z,13.43
2018-02-13T18:39:44.882Z,15.40
2018-02-13T18:42:16.340Z,17.10
2018-02-13T18:44:47.716Z,15.13
2018-02-13T18:47:19.481Z,22.30
2018-02-13T18:49:51.354Z,29.67
2018-02-13T18:54:57.007Z,22.23
2018-02-13T18:57:29.882Z,17.03
2018-02-13T19:00:01.975Z,23.02
2018-02-13T19:02:34.868Z,16.13
2018-02-13T19:05:06.760Z,18.12
2018-02-13T19:07:38.240Z,16.53
2018-02-13T19:10:10.953Z,21.90
2018-02-13T19:12:43.673Z,21.33
2018-02-13T19:15:16.895Z,17.60
2018-02-13T19:17:49.474Z,25.70
2018-02-13T19:20:22.364Z,16.60
2018-02-13T19:22:56.617Z,16.13
2018-02-13T19:25:29.973Z,20.43
2018-02-13T19:28:02.445Z,16.20
2018-02-13T19:30:35.230Z,16.07
2018-02-13T19:33:08.248Z,15.60
2018-02-13T19:35:40.888Z,20.12
2018-02-13T19:38:14.013Z,14.80
2018-02-13T19:40:47.626Z,18.30
2018-02-13T19:43:20.558Z,16.53
2018-02-13T19:45:53.432Z,15.00
2018-02-13T19:48:26.349Z,18.77
2018-02-13T19:50:58.968Z,16.73
2018-02-13T19:53:32.404Z,15.33
2018-02-13T19:56:07.314Z,15.77
2018-02-13T19:58:40.394Z,17.17
2018-02-13T20:01:18.219Z,20.30
2018-02-13T20:03:51.459Z,25.83
2018-02-13T20:06:24.668Z,21.87
2018-02-13T20:08:57.701Z,40.40
2018-02-13T20:11:31.954Z,27.00
2018-02-13T20:14:05.020Z,20.75
2018-02-13T20:16:39.984Z,17.23
2018-02-13T20:19:12.810Z,20.67
2018-02-13T20:21:45.547Z,16.42
2018-02-13T20:24:18.688Z,14.87
2018-02-13T20:26:51.673Z,18.92
2018-02-13T20:29:24.536Z,21.40
2018-02-13T20:31:57.504Z,15.80
2018-02-13T20:34:30.416Z,19.02
2018-02-13T20:37:03.287Z,17.30
2018-02-13T20:39:37.071Z,15.57
2018-02-13T20:42:11.018Z,19.37
2018-02-13T20:44:44.053Z,16.85
2018-02-13T20:47:17.598Z,21.30
2018-02-13T20:49:50.453Z,18.10
2018-02-13T20:52:23.331Z,18.60
2018-02-13T20:54:57.219Z,15.32
2018-02-13T20:57:30.127Z,20.27
2018-02-13T21:00:03.322Z,17.52
2018-02-13T21:02:36.040Z,21.80
2018-02-13T21:05:08.429Z,20.05
2018-02-13T21:07:41.237Z,21.12
2018-02-13T21:10:14.022Z,16.90
2018-02-13T21:12:47.498Z,16.75
2018-02-13T21:15:20.232Z,20.65
2018-02-13T21:17:53.030Z,22.70
2018-02-13T21:20:25.893Z,17.90
2018-02-13T21:22:58.105Z,21.67
2018-02-13T21:25:30.398Z,16.25
2018-02-13T21:28:02.914Z,18.27
2018-02-13T21:30:34.636Z,25.10
2018-02-13T21:33:06.779Z,20.42
2018-02-13T21:35:38.245Z,17.33
2018-02-13T21:38:09.925Z,17.52
2018-02-13T21:40:41.695Z,22.05
2018-02-13T21:43:14.000Z,20.73
2018-02-13T21:45:48.365Z,21.58
2018-02-13T21:48:20.468Z,20.67
2018-02-13T21:50:51.856Z,17.40
2018-02-13T21:53:23.953Z,22.45
2018-02-13T21:55:55.369Z,19.92
2018-02-13T21:58:26.506Z,21.00
2018-02-13T22:00:57.831Z,22.67
2018-02-13T22:03:28.691Z,22.02
2018-02-13T22:05:59.675Z,21.40
2018-02-13T22:08:30.892Z,27.00
2018-02-13T22:11:02.773Z,25.00
2018-02-13T22:13:34.845Z,24.27
2018-02-13T22:16:06.447Z,29.77
2018-02-13T22:18:38.143Z,28.08
2018-02-13T22:21:09.021Z,28.12
2018-02-13T22:23:40.719Z,28.15
2018-02-13T22:26:12.078Z,25.67
2018-02-13T22:28:43.954Z,30.33
2018-02-13T22:31:14.523Z,28.48
2018-02-13T22:33:45.219Z,24.40
2018-02-13T22:36:16.781Z,26.45
2018-02-13T22:38:48.700Z,28.98
2018-02-13T22:41:20.300Z,69.07
2018-02-13T22:43:52.484Z,51.47
2018-02-13T22:46:24.769Z,26.50
2018-02-13T22:48:55.807Z,22.62
2018-02-13T22:51:26.431Z,25.73
2018-02-13T22:53:56.989Z,21.37
2018-02-13T22:56:27.709Z,24.90
2018-02-13T22:59:00.074Z,26.20
2018-02-13T23:01:31.650Z,27.35
2018-02-13T23:04:02.062Z,24.42
2018-02-13T23:06:33.143Z,29.50
2018-02-13T23:09:04.955Z,25.60
2018-02-13T23:11:35.546Z,25.15
2018-02-13T23:14:06.226Z,22.98
2018-02-13T23:16:37.833Z,23.62
2018-02-13T23:19:08.440Z,31.20
2018-02-13T23:21:38.691Z,25.17
2018-02-13T23:24:09.540Z,26.73
2018-02-13T23:26:40.238Z,26.27
2018-02-13T23:29:11.135Z,25.95
2018-02-13T23:31:42.831Z,19.83
2018-02-13T23:34:13.319Z,21.67
2018-02-13T23:36:44.217Z,24.73
2018-02-13T23:39:14.701Z,21.62
2018-02-13T23:41:45.348Z,25.25
2018-02-13T23:44:15.599Z,29.52
2018-02-13T23:46:46.495Z,21.85
2018-02-13T23:49:17.019Z,21.98
2018-02-13T23:51:47.320Z,26.92
2018-02-13T23:54:18.347Z,26.73
2018-02-13T23:56:48.938Z,27.50
2018-02-13T23:59:19.472Z,25.77
